sensor_id;sensor_type;location;lat;lon;timestamp;P1;durP1;ratioP1;P2;durP2;ratioP2
21420;SDS011;10871;50.144;8.428;2022-08-01T00:01:53;4.65;;;2.10;;
21420;SDS011;10871;50.144;8.428;2022-08-01T00:04:19;2.60;;;2.40;;
21420;SDS011;10871;50.144;8.428;2022-08-01T00:06:46;2.33;;;1.98;;
21420;SDS011;10871;50.144;8.428;2022-08-01T00:09:12;2.08;;;1.70;;
21420;SDS011;10871;50.144;8.428;2022-08-01T00:11:49;2.13;;;1.92;;
21420;SDS011;10871;50.144;8.428;2022-08-01T00:14:25;2.78;;;1.60;;
21420;SDS011;10871;50.144;8.428;2022-08-01T00:16:58;3.08;;;1.52;;
21420;SDS011;10871;50.144;8.428;2022-08-01T00:21:58;2.97;;;1.98;;
21420;SDS011;10871;50.144;8.428;2022-08-01T00:24:24;2.42;;;1.80;;
21420;SDS011;10871;50.144;8.428;2022-08-01T00:26:51;1.70;;;1.60;;
21420;SDS011;10871;50.144;8.428;2022-08-01T00:29:17;3.97;;;1.85;;
21420;SDS011;10871;50.144;8.428;2022-08-01T00:32:03;3.83;;;1.55;;
21420;SDS011;10871;50.144;8.428;2022-08-01T00:34:31;3.47;;;1.77;;
21420;SDS011;10871;50.144;8.428;2022-08-01T00:36:57;4.30;;;1.77;;
21420;SDS011;10871;50.144;8.428;2022-08-01T00:39:23;2.80;;;1.70;;
21420;SDS011;10871;50.144;8.428;2022-08-01T00:41:50;1.75;;;1.55;;
21420;SDS011;10871;50.144;8.428;2022-08-01T00:44:25;2.72;;;1.80;;
21420;SDS011;10871;50.144;8.428;2022-08-01T00:46:52;2.78;;;1.70;;
21420;SDS011;10871;50.144;8.428;2022-08-01T00:49:18;3.20;;;1.70;;
21420;SDS011;10871;50.144;8.428;2022-08-01T00:51:45;3.95;;;2.10;;
21420;SDS011;10871;50.144;8.428;2022-08-01T00:54:11;3.63;;;1.85;;
21420;SDS011;10871;50.144;8.428;2022-08-01T00:56:41;2.28;;;2.00;;
21420;SDS011;10871;50.144;8.428;2022-08-01T00:59:08;2.75;;;1.67;;
21420;SDS011;10871;50.144;8.428;2022-08-01T01:01:35;1.92;;;1.60;;
21420;SDS011;10871;50.144;8.428;2022-08-01T01:04:05;1.67;;;1.58;;
21420;SDS011;10871;50.144;8.428;2022-08-01T01:06:38;2.72;;;1.80;;
21420;SDS011;10871;50.144;8.428;2022-08-01T01:11:57;3.38;;;1.60;;
21420;SDS011;10871;50.144;8.428;2022-08-01T01:15:10;2.42;;;1.80;;
21420;SDS011;10871;50.144;8.428;2022-08-01T01:17:16;3.17;;;1.67;;
21420;SDS011;10871;50.144;8.428;2022-08-01T01:20:03;2.45;;;1.90;;
21420;SDS011;10871;50.144;8.428;2022-08-01T01:22:46;2.75;;;2.30;;
21420;SDS011;10871;50.144;8.428;2022-08-01T01:30:15;3.70;;;2.00;;
21420;SDS011;10871;50.144;8.428;2022-08-01T01:32:43;1.88;;;1.60;;
21420;SDS011;10871;50.144;8.428;2022-08-01T01:35:13;3.17;;;1.98;;
21420;SDS011;10871;50.144;8.428;2022-08-01T01:37:41;3.15;;;1.90;;
21420;SDS011;10871;50.144;8.428;2022-08-01T01:40:08;2.20;;;2.00;;
21420;SDS011;10871;50.144;8.428;2022-08-01T01:42:35;3.05;;;2.10;;
21420;SDS011;10871;50.144;8.428;2022-08-01T01:45:02;2.22;;;2.03;;
21420;SDS011;10871;50.144;8.428;2022-08-01T01:47:29;2.95;;;1.85;;
21420;SDS011;10871;50.144;8.428;2022-08-01T01:49:57;2.22;;;2.03;;
21420;SDS011;10871;50.144;8.428;2022-08-01T01:52:24;2.60;;;1.83;;
21420;SDS011;10871;50.144;8.428;2022-08-01T01:54:51;1.90;;;1.70;;
21420;SDS011;10871;50.144;8.428;2022-08-01T01:57:18;2.20;;;2.00;;
21420;SDS011;10871;50.144;8.428;2022-08-01T01:59:45;2.00;;;1.67;;
21420;SDS011;10871;50.144;8.428;2022-08-01T02:02:12;2.97;;;2.00;;
21420;SDS011;10871;50.144;8.428;2022-08-01T02:04:41;3.72;;;2.10;;
21420;SDS011;10871;50.144;8.428;2022-08-01T02:07:09;4.00;;;2.10;;
21420;SDS011;10871;50.144;8.428;2022-08-01T02:09:37;2.60;;;1.80;;
21420;SDS011;10871;50.144;8.428;2022-08-01T02:12:03;4.45;;;2.00;;
21420;SDS011;10871;50.144;8.428;2022-08-01T02:14:34;3.88;;;2.00;;
21420;SDS011;10871;50.144;8.428;2022-08-01T02:17:03;3.22;;;1.95;;
21420;SDS011;10871;50.144;8.428;2022-08-01T02:19:30;2.85;;;1.70;;
21420;SDS011;10871;50.144;8.428;2022-08-01T02:22:08;1.95;;;1.70;;
21420;SDS011;10871;50.144;8.428;2022-08-01T02:24:49;3.85;;;2.10;;
21420;SDS011;10871;50.144;8.428;2022-08-01T02:27:17;2.28;;;1.70;;
21420;SDS011;10871;50.144;8.428;2022-08-01T02:29:49;2.33;;;2.08;;
21420;SDS011;10871;50.144;8.428;2022-08-01T02:32:30;2.00;;;1.80;;
21420;SDS011;10871;50.144;8.428;2022-08-01T02:34:57;3.85;;;2.53;;
21420;SDS011;10871;50.144;8.428;2022-08-01T02:37:23;3.38;;;1.80;;
21420;SDS011;10871;50.144;8.428;2022-08-01T02:39:52;1.98;;;1.70;;
21420;SDS011;10871;50.144;8.428;2022-08-01T02:42:20;3.67;;;2.10;;
21420;SDS011;10871;50.144;8.428;2022-08-01T02:44:47;3.50;;;1.92;;
21420;SDS011;10871;50.144;8.428;2022-08-01T02:47:14;2.83;;;2.05;;
21420;SDS011;10871;50.144;8.428;2022-08-01T02:49:42;3.05;;;1.95;;
21420;SDS011;10871;50.144;8.428;2022-08-01T02:52:15;3.40;;;1.65;;
21420;SDS011;10871;50.144;8.428;2022-08-01T02:54:43;3.03;;;1.92;;
21420;SDS011;10871;50.144;8.428;2022-08-01T02:57:10;2.17;;;1.80;;
21420;SDS011;10871;50.144;8.428;2022-08-01T02:59:39;2.90;;;2.05;;
21420;SDS011;10871;50.144;8.428;2022-08-01T03:02:07;3.75;;;2.30;;
21420;SDS011;10871;50.144;8.428;2022-08-01T03:04:35;2.08;;;1.90;;
21420;SDS011;10871;50.144;8.428;2022-08-01T03:07:03;2.60;;;2.25;;
21420;SDS011;10871;50.144;8.428;2022-08-01T03:09:30;3.35;;;2.13;;
21420;SDS011;10871;50.144;8.428;2022-08-01T03:11:58;3.38;;;1.88;;
21420;SDS011;10871;50.144;8.428;2022-08-01T03:14:27;2.15;;;1.88;;
21420;SDS011;10871;50.144;8.428;2022-08-01T03:16:54;2.97;;;1.77;;
21420;SDS011;10871;50.144;8.428;2022-08-01T03:19:22;3.42;;;2.15;;
21420;SDS011;10871;50.144;8.428;2022-08-01T03:21:49;4.85;;;2.00;;
21420;SDS011;10871;50.144;8.428;2022-08-01T03:24:15;3.38;;;2.10;;
21420;SDS011;10871;50.144;8.428;2022-08-01T03:26:42;3.10;;;2.10;;
21420;SDS011;10871;50.144;8.428;2022-08-01T03:29:14;3.25;;;1.92;;
21420;SDS011;10871;50.144;8.428;2022-08-01T03:31:41;2.65;;;1.83;;
21420;SDS011;10871;50.144;8.428;2022-08-01T03:34:09;2.58;;;2.00;;
21420;SDS011;10871;50.144;8.428;2022-08-01T03:36:38;3.03;;;1.70;;
21420;SDS011;10871;50.144;8.428;2022-08-01T03:39:08;4.03;;;2.00;;
21420;SDS011;10871;50.144;8.428;2022-08-01T03:41:37;2.80;;;2.38;;
21420;SDS011;10871;50.144;8.428;2022-08-01T03:44:06;2.03;;;1.85;;
21420;SDS011;10871;50.144;8.428;2022-08-01T03:46:40;2.78;;;1.90;;
21420;SDS011;10871;50.144;8.428;2022-08-01T03:49:11;2.60;;;1.52;;
21420;SDS011;10871;50.144;8.428;2022-08-01T03:51:38;2.30;;;1.50;;
21420;SDS011;10871;50.144;8.428;2022-08-01T03:54:04;3.63;;;1.70;;
21420;SDS011;10871;50.144;8.428;2022-08-01T03:56:31;2.65;;;1.88;;
21420;SDS011;10871;50.144;8.428;2022-08-01T03:58:59;3.08;;;2.08;;
21420;SDS011;10871;50.144;8.428;2022-08-01T04:01:25;2.20;;;1.90;;
21420;SDS011;10871;50.144;8.428;2022-08-01T04:03:52;5.18;;;2.10;;
21420;SDS011;10871;50.144;8.428;2022-08-01T04:06:19;2.75;;;1.98;;
21420;SDS011;10871;50.144;8.428;2022-08-01T04:08:46;2.50;;;2.03;;
21420;SDS011;10871;50.144;8.428;2022-08-01T04:11:23;4.57;;;2.20;;
21420;SDS011;10871;50.144;8.428;2022-08-01T04:13:50;3.13;;;1.80;;
21420;SDS011;10871;50.144;8.428;2022-08-01T04:16:18;4.18;;;2.42;;
21420;SDS011;10871;50.144;8.428;2022-08-01T04:18:44;4.45;;;1.92;;
21420;SDS011;10871;50.144;8.428;2022-08-01T04:21:11;4.18;;;2.28;;
21420;SDS011;10871;50.144;8.428;2022-08-01T04:23:37;4.35;;;2.00;;
21420;SDS011;10871;50.144;8.428;2022-08-01T04:26:04;4.00;;;1.95;;
21420;SDS011;10871;50.144;8.428;2022-08-01T04:28:34;3.72;;;2.38;;
21420;SDS011;10871;50.144;8.428;2022-08-01T04:31:02;2.67;;;2.17;;
21420;SDS011;10871;50.144;8.428;2022-08-01T04:33:30;3.13;;;2.10;;
21420;SDS011;10871;50.144;8.428;2022-08-01T04:35:58;5.00;;;2.15;;
21420;SDS011;10871;50.144;8.428;2022-08-01T04:38:30;5.53;;;2.25;;
21420;SDS011;10871;50.144;8.428;2022-08-01T04:40:57;2.75;;;2.10;;
21420;SDS011;10871;50.144;8.428;2022-08-01T04:43:34;4.43;;;2.42;;
21420;SDS011;10871;50.144;8.428;2022-08-01T04:46:00;6.03;;;2.40;;
21420;SDS011;10871;50.144;8.428;2022-08-01T04:48:29;3.13;;;2.13;;
21420;SDS011;10871;50.144;8.428;2022-08-01T04:50:57;2.63;;;2.30;;
21420;SDS011;10871;50.144;8.428;2022-08-01T04:53:23;3.53;;;2.35;;
21420;SDS011;10871;50.144;8.428;2022-08-01T04:55:50;3.13;;;2.28;;
21420;SDS011;10871;50.144;8.428;2022-08-01T04:58:16;2.97;;;2.60;;
21420;SDS011;10871;50.144;8.428;2022-08-01T05:00:44;2.70;;;2.50;;
21420;SDS011;10871;50.144;8.428;2022-08-01T05:03:11;4.18;;;2.65;;
21420;SDS011;10871;50.144;8.428;2022-08-01T05:05:37;3.28;;;2.55;;
21420;SDS011;10871;50.144;8.428;2022-08-01T05:08:04;5.85;;;2.70;;
21420;SDS011;10871;50.144;8.428;2022-08-01T05:10:32;4.05;;;2.60;;
21420;SDS011;10871;50.144;8.428;2022-08-01T05:12:58;3.00;;;2.70;;
21420;SDS011;10871;50.144;8.428;2022-08-01T05:15:25;4.80;;;2.60;;
21420;SDS011;10871;50.144;8.428;2022-08-01T05:17:51;2.95;;;2.65;;
21420;SDS011;10871;50.144;8.428;2022-08-01T05:20:17;2.70;;;2.40;;
21420;SDS011;10871;50.144;8.428;2022-08-01T05:22:44;9.65;;;2.95;;
21420;SDS011;10871;50.144;8.428;2022-08-01T05:25:10;4.10;;;2.63;;
21420;SDS011;10871;50.144;8.428;2022-08-01T05:27:39;2.85;;;2.65;;
21420;SDS011;10871;50.144;8.428;2022-08-01T05:30:07;4.82;;;3.20;;
21420;SDS011;10871;50.144;8.428;2022-08-01T05:32:34;4.63;;;2.70;;
21420;SDS011;10871;50.144;8.428;2022-08-01T05:35:00;3.00;;;2.70;;
21420;SDS011;10871;50.144;8.428;2022-08-01T05:37:27;3.35;;;2.88;;
21420;SDS011;10871;50.144;8.428;2022-08-01T05:39:53;5.85;;;2.60;;
21420;SDS011;10871;50.144;8.428;2022-08-01T05:42:19;3.03;;;2.75;;
21420;SDS011;10871;50.144;8.428;2022-08-01T05:44:46;3.15;;;2.75;;
21420;SDS011;10871;50.144;8.428;2022-08-01T05:47:13;3.35;;;2.70;;
21420;SDS011;10871;50.144;8.428;2022-08-01T05:49:40;2.92;;;2.63;;
21420;SDS011;10871;50.144;8.428;2022-08-01T05:52:06;2.70;;;2.50;;
21420;SDS011;10871;50.144;8.428;2022-08-01T05:54:34;3.00;;;2.65;;
21420;SDS011;10871;50.144;8.428;2022-08-01T05:57:00;5.20;;;2.90;;
21420;SDS011;10871;50.144;8.428;2022-08-01T05:59:28;3.50;;;2.60;;
21420;SDS011;10871;50.144;8.428;2022-08-01T06:01:55;2.70;;;2.50;;
21420;SDS011;10871;50.144;8.428;2022-08-01T06:04:21;4.55;;;2.50;;
21420;SDS011;10871;50.144;8.428;2022-08-01T06:06:47;3.47;;;2.72;;
21420;SDS011;10871;50.144;8.428;2022-08-01T06:09:14;3.35;;;2.30;;
21420;SDS011;10871;50.144;8.428;2022-08-01T06:11:40;4.18;;;2.50;;
21420;SDS011;10871;50.144;8.428;2022-08-01T06:14:07;2.67;;;2.30;;
21420;SDS011;10871;50.144;8.428;2022-08-01T06:16:33;2.33;;;2.10;;
21420;SDS011;10871;50.144;8.428;2022-08-01T06:19:00;3.83;;;2.55;;
21420;SDS011;10871;50.144;8.428;2022-08-01T06:21:26;2.40;;;2.20;;
21420;SDS011;10871;50.144;8.428;2022-08-01T06:23:52;2.50;;;2.30;;
21420;SDS011;10871;50.144;8.428;2022-08-01T06:26:19;2.83;;;2.20;;
21420;SDS011;10871;50.144;8.428;2022-08-01T06:28:45;2.80;;;2.50;;
21420;SDS011;10871;50.144;8.428;2022-08-01T06:31:12;4.70;;;3.30;;
21420;SDS011;10871;50.144;8.428;2022-08-01T06:33:39;4.40;;;3.60;;
21420;SDS011;10871;50.144;8.428;2022-08-01T06:36:06;4.50;;;3.70;;
21420;SDS011;10871;50.144;8.428;2022-08-01T06:38:32;4.50;;;3.65;;
21420;SDS011;10871;50.144;8.428;2022-08-01T06:40:59;4.80;;;4.40;;
21420;SDS011;10871;50.144;8.428;2022-08-01T06:43:25;5.65;;;4.05;;
21420;SDS011;10871;50.144;8.428;2022-08-01T06:45:51;6.07;;;3.45;;
21420;SDS011;10871;50.144;8.428;2022-08-01T06:48:18;4.72;;;3.60;;
21420;SDS011;10871;50.144;8.428;2022-08-01T06:50:44;4.55;;;3.67;;
21420;SDS011;10871;50.144;8.428;2022-08-01T06:53:10;5.50;;;3.20;;
21420;SDS011;10871;50.144;8.428;2022-08-01T06:55:37;3.10;;;2.80;;
21420;SDS011;10871;50.144;8.428;2022-08-01T06:58:04;5.35;;;3.00;;
21420;SDS011;10871;50.144;8.428;2022-08-01T07:00:31;4.97;;;3.38;;
21420;SDS011;10871;50.144;8.428;2022-08-01T07:02:57;7.30;;;3.53;;
21420;SDS011;10871;50.144;8.428;2022-08-01T07:05:25;5.82;;;3.60;;
21420;SDS011;10871;50.144;8.428;2022-08-01T07:07:51;5.40;;;3.60;;
21420;SDS011;10871;50.144;8.428;2022-08-01T07:10:18;7.15;;;3.72;;
21420;SDS011;10871;50.144;8.428;2022-08-01T07:12:44;5.47;;;4.00;;
21420;SDS011;10871;50.144;8.428;2022-08-01T07:15:11;6.35;;;4.22;;
21420;SDS011;10871;50.144;8.428;2022-08-01T07:17:38;6.65;;;5.25;;
21420;SDS011;10871;50.144;8.428;2022-08-01T07:20:06;5.32;;;4.40;;
21420;SDS011;10871;50.144;8.428;2022-08-01T07:22:36;6.82;;;4.80;;
21420;SDS011;10871;50.144;8.428;2022-08-01T07:25:03;6.95;;;4.22;;
21420;SDS011;10871;50.144;8.428;2022-08-01T07:27:30;4.72;;;4.30;;
21420;SDS011;10871;50.144;8.428;2022-08-01T07:29:56;4.13;;;3.72;;
21420;SDS011;10871;50.144;8.428;2022-08-01T07:32:23;4.55;;;4.15;;
21420;SDS011;10871;50.144;8.428;2022-08-01T07:34:49;4.40;;;4.00;;
21420;SDS011;10871;50.144;8.428;2022-08-01T07:37:16;4.32;;;3.92;;
21420;SDS011;10871;50.144;8.428;2022-08-01T07:40:02;4.63;;;4.15;;
21420;SDS011;10871;50.144;8.428;2022-08-01T07:42:30;5.10;;;4.70;;
21420;SDS011;10871;50.144;8.428;2022-08-01T07:44:57;5.25;;;4.22;;
21420;SDS011;10871;50.144;8.428;2022-08-01T07:47:24;5.32;;;4.65;;
21420;SDS011;10871;50.144;8.428;2022-08-01T07:49:50;5.10;;;4.60;;
21420;SDS011;10871;50.144;8.428;2022-08-01T07:52:17;5.45;;;4.80;;
21420;SDS011;10871;50.144;8.428;2022-08-01T07:54:44;6.53;;;5.30;;
21420;SDS011;10871;50.144;8.428;2022-08-01T07:57:17;6.80;;;6.10;;
21420;SDS011;10871;50.144;8.428;2022-08-01T07:59:43;6.85;;;6.15;;
21420;SDS011;10871;50.144;8.428;2022-08-01T08:02:10;6.68;;;6.07;;
21420;SDS011;10871;50.144;8.428;2022-08-01T08:04:37;6.93;;;6.22;;
21420;SDS011;10871;50.144;8.428;2022-08-01T08:07:03;7.15;;;6.10;;
21420;SDS011;10871;50.144;8.428;2022-08-01T08:09:30;6.70;;;6.03;;
21420;SDS011;10871;50.144;8.428;2022-08-01T08:12:03;6.60;;;5.93;;
21420;SDS011;10871;50.144;8.428;2022-08-01T08:14:30;6.03;;;5.45;;
21420;SDS011;10871;50.144;8.428;2022-08-01T08:16:58;5.80;;;5.30;;
21420;SDS011;10871;50.144;8.428;2022-08-01T08:19:24;5.97;;;5.18;;
21420;SDS011;10871;50.144;8.428;2022-08-01T08:22:04;5.22;;;4.82;;
21420;SDS011;10871;50.144;8.428;2022-08-01T08:24:31;5.97;;;4.68;;
21420;SDS011;10871;50.144;8.428;2022-08-01T08:26:58;6.65;;;4.88;;
21420;SDS011;10871;50.144;8.428;2022-08-01T08:29:25;5.22;;;4.72;;
21420;SDS011;10871;50.144;8.428;2022-08-01T08:31:52;5.40;;;4.32;;
21420;SDS011;10871;50.144;8.428;2022-08-01T08:34:19;6.63;;;4.30;;
21420;SDS011;10871;50.144;8.428;2022-08-01T08:36:46;5.40;;;4.18;;
21420;SDS011;10871;50.144;8.428;2022-08-01T08:39:15;4.97;;;4.53;;
21420;SDS011;10871;50.144;8.428;2022-08-01T08:41:44;6.43;;;4.80;;
21420;SDS011;10871;50.144;8.428;2022-08-01T08:44:14;5.60;;;4.38;;
21420;SDS011;10871;50.144;8.428;2022-08-01T08:46:43;5.03;;;4.40;;
21420;SDS011;10871;50.144;8.428;2022-08-01T08:49:10;5.68;;;4.35;;
21420;SDS011;10871;50.144;8.428;2022-08-01T08:51:38;5.30;;;4.90;;
21420;SDS011;10871;50.144;8.428;2022-08-01T08:54:05;5.00;;;4.43;;
21420;SDS011;10871;50.144;8.428;2022-08-01T08:56:32;5.28;;;4.78;;
21420;SDS011;10871;50.144;8.428;2022-08-01T08:59:01;5.57;;;4.57;;
21420;SDS011;10871;50.144;8.428;2022-08-01T09:01:28;5.63;;;4.20;;
21420;SDS011;10871;50.144;8.428;2022-08-01T09:03:54;5.07;;;4.65;;
21420;SDS011;10871;50.144;8.428;2022-08-01T09:06:30;4.93;;;4.53;;
21420;SDS011;10871;50.144;8.428;2022-08-01T09:08:57;4.47;;;4.03;;
21420;SDS011;10871;50.144;8.428;2022-08-01T09:11:23;5.38;;;4.65;;
21420;SDS011;10871;50.144;8.428;2022-08-01T09:16:35;4.28;;;3.88;;
21420;SDS011;10871;50.144;8.428;2022-08-01T09:19:09;5.50;;;4.30;;
21420;SDS011;10871;50.144;8.428;2022-08-01T09:21:57;4.70;;;4.30;;
21420;SDS011;10871;50.144;8.428;2022-08-01T09:24:25;4.75;;;4.30;;
21420;SDS011;10871;50.144;8.428;2022-08-01T09:26:56;4.90;;;4.50;;
21420;SDS011;10871;50.144;8.428;2022-08-01T09:29:26;5.10;;;4.60;;
21420;SDS011;10871;50.144;8.428;2022-08-01T09:32:04;6.05;;;4.80;;
21420;SDS011;10871;50.144;8.428;2022-08-01T09:34:31;5.07;;;4.53;;
21420;SDS011;10871;50.144;8.428;2022-08-01T09:37:00;5.93;;;4.80;;
21420;SDS011;10871;50.144;8.428;2022-08-01T09:39:29;5.25;;;4.80;;
21420;SDS011;10871;50.144;8.428;2022-08-01T09:41:56;4.75;;;4.35;;
21420;SDS011;10871;50.144;8.428;2022-08-01T09:44:39;6.60;;;4.53;;
21420;SDS011;10871;50.144;8.428;2022-08-01T09:47:10;4.60;;;4.20;;
21420;SDS011;10871;50.144;8.428;2022-08-01T09:49:41;6.53;;;4.80;;
21420;SDS011;10871;50.144;8.428;2022-08-01T09:52:19;4.70;;;4.30;;
21420;SDS011;10871;50.144;8.428;2022-08-01T09:57:17;5.72;;;4.22;;
21420;SDS011;10871;50.144;8.428;2022-08-01T09:59:45;6.38;;;4.15;;
21420;SDS011;10871;50.144;8.428;2022-08-01T10:02:32;4.22;;;3.92;;
21420;SDS011;10871;50.144;8.428;2022-08-01T10:05:00;4.82;;;3.47;;
21420;SDS011;10871;50.144;8.428;2022-08-01T10:07:33;4.18;;;3.85;;
21420;SDS011;10871;50.144;8.428;2022-08-01T10:10:13;4.32;;;3.92;;
21420;SDS011;10871;50.144;8.428;2022-08-01T10:12:41;4.40;;;4.00;;
21420;SDS011;10871;50.144;8.428;2022-08-01T10:15:11;4.68;;;4.28;;
21420;SDS011;10871;50.144;8.428;2022-08-01T10:17:39;4.22;;;3.83;;
21420;SDS011;10871;50.144;8.428;2022-08-01T10:20:18;4.05;;;3.75;;
21420;SDS011;10871;50.144;8.428;2022-08-01T10:22:58;3.92;;;3.63;;
21420;SDS011;10871;50.144;8.428;2022-08-01T10:25:26;4.38;;;3.97;;
21420;SDS011;10871;50.144;8.428;2022-08-01T10:28:16;3.60;;;3.30;;
21420;SDS011;10871;50.144;8.428;2022-08-01T10:30:49;5.22;;;4.13;;
21420;SDS011;10871;50.144;8.428;2022-08-01T10:33:18;6.40;;;4.00;;
21420;SDS011;10871;50.144;8.428;2022-08-01T10:36:07;4.20;;;3.90;;
21420;SDS011;10871;50.144;8.428;2022-08-01T10:38:35;4.00;;;3.60;;
21420;SDS011;10871;50.144;8.428;2022-08-01T10:41:02;4.00;;;3.58;;
21420;SDS011;10871;50.144;8.428;2022-08-01T10:43:32;3.92;;;3.20;;
21420;SDS011;10871;50.144;8.428;2022-08-01T10:46:00;3.30;;;2.97;;
21420;SDS011;10871;50.144;8.428;2022-08-01T10:48:34;3.20;;;3.00;;
21420;SDS011;10871;50.144;8.428;2022-08-01T10:51:04;6.07;;;3.10;;
21420;SDS011;10871;50.144;8.428;2022-08-01T10:53:48;3.15;;;2.90;;
21420;SDS011;10871;50.144;8.428;2022-08-01T10:56:20;3.65;;;3.35;;
21420;SDS011;10871;50.144;8.428;2022-08-01T10:58:55;4.57;;;3.37;;
21420;SDS011;10871;50.144;8.428;2022-08-01T11:01:27;3.60;;;3.30;;
21420;SDS011;10871;50.144;8.428;2022-08-01T11:06:26;3.80;;;3.50;;
21420;SDS011;10871;50.144;8.428;2022-08-01T11:08:55;3.65;;;3.33;;
21420;SDS011;10871;50.144;8.428;2022-08-01T11:11:26;3.80;;;3.40;;
21420;SDS011;10871;50.144;8.428;2022-08-01T11:14:05;3.30;;;3.00;;
21420;SDS011;10871;50.144;8.428;2022-08-01T11:16:39;4.35;;;2.90;;
21420;SDS011;10871;50.144;8.428;2022-08-01T11:19:06;3.95;;;2.80;;
21420;SDS011;10871;50.144;8.428;2022-08-01T11:21:57;3.10;;;2.80;;
21420;SDS011;10871;50.144;8.428;2022-08-01T11:32:48;3.03;;;2.83;;
21420;SDS011;10871;50.144;8.428;2022-08-01T11:35:35;3.58;;;3.10;;
21420;SDS011;10871;50.144;8.428;2022-08-01T11:40:47;3.97;;;3.13;;
21420;SDS011;10871;50.144;8.428;2022-08-01T11:43:33;3.40;;;3.10;;
21420;SDS011;10871;50.144;8.428;2022-08-01T11:46:00;3.97;;;3.58;;
21420;SDS011;10871;50.144;8.428;2022-08-01T11:48:26;3.70;;;3.40;;
21420;SDS011;10871;50.144;8.428;2022-08-01T11:50:56;4.00;;;3.55;;
21420;SDS011;10871;50.144;8.428;2022-08-01T11:53:22;4.05;;;3.20;;
21420;SDS011;10871;50.144;8.428;2022-08-01T11:55:52;3.72;;;3.33;;
21420;SDS011;10871;50.144;8.428;2022-08-01T11:58:23;3.70;;;3.40;;
21420;SDS011;10871;50.144;8.428;2022-08-01T12:00:57;3.47;;;3.17;;
21420;SDS011;10871;50.144;8.428;2022-08-01T12:03:28;4.32;;;3.25;;
21420;SDS011;10871;50.144;8.428;2022-08-01T12:05:59;3.50;;;3.20;;
21420;SDS011;10871;50.144;8.428;2022-08-01T12:10:52;4.40;;;3.40;;
21420;SDS011;10871;50.144;8.428;2022-08-01T12:13:28;3.97;;;3.20;;
21420;SDS011;10871;50.144;8.428;2022-08-01T12:16:08;4.00;;;3.35;;
21420;SDS011;10871;50.144;8.428;2022-08-01T12:18:38;3.60;;;3.30;;
21420;SDS011;10871;50.144;8.428;2022-08-01T12:21:06;4.18;;;3.03;;
21420;SDS011;10871;50.144;8.428;2022-08-01T12:23:32;3.40;;;3.20;;
21420;SDS011;10871;50.144;8.428;2022-08-01T12:25:58;3.47;;;3.13;;
21420;SDS011;10871;50.144;8.428;2022-08-01T12:28:26;4.28;;;3.55;;
21420;SDS011;10871;50.144;8.428;2022-08-01T12:30:53;4.05;;;2.85;;
21420;SDS011;10871;50.144;8.428;2022-08-01T12:33:20;4.85;;;2.67;;
21420;SDS011;10871;50.144;8.428;2022-08-01T12:35:47;3.20;;;2.60;;
21420;SDS011;10871;50.144;8.428;2022-08-01T12:38:14;2.85;;;2.58;;
21420;SDS011;10871;50.144;8.428;2022-08-01T12:40:41;3.28;;;2.53;;
21420;SDS011;10871;50.144;8.428;2022-08-01T12:43:15;2.45;;;2.25;;
21420;SDS011;10871;50.144;8.428;2022-08-01T12:45:54;3.03;;;2.50;;
21420;SDS011;10871;50.144;8.428;2022-08-01T12:48:23;4.03;;;2.47;;
21420;SDS011;10871;50.144;8.428;2022-08-01T12:50:49;2.55;;;2.35;;
21420;SDS011;10871;50.144;8.428;2022-08-01T12:53:19;3.88;;;2.40;;
21420;SDS011;10871;50.144;8.428;2022-08-01T12:55:48;2.70;;;2.50;;
21420;SDS011;10871;50.144;8.428;2022-08-01T12:58:34;4.07;;;2.50;;
21420;SDS011;10871;50.144;8.428;2022-08-01T13:01:07;2.60;;;2.40;;
21420;SDS011;10871;50.144;8.428;2022-08-01T13:03:35;2.60;;;2.40;;
21420;SDS011;10871;50.144;8.428;2022-08-01T13:06:09;3.45;;;2.40;;
21420;SDS011;10871;50.144;8.428;2022-08-01T13:08:36;2.43;;;2.23;;
21420;SDS011;10871;50.144;8.428;2022-08-01T13:11:05;2.60;;;2.40;;
21420;SDS011;10871;50.144;8.428;2022-08-01T13:13:41;3.00;;;2.65;;
21420;SDS011;10871;50.144;8.428;2022-08-01T13:16:09;3.35;;;2.40;;
21420;SDS011;10871;50.144;8.428;2022-08-01T13:18:54;2.70;;;2.50;;
21420;SDS011;10871;50.144;8.428;2022-08-01T13:21:23;3.47;;;2.47;;
21420;SDS011;10871;50.144;8.428;2022-08-01T13:24:00;2.88;;;2.40;;
21420;SDS011;10871;50.144;8.428;2022-08-01T13:29:06;3.10;;;2.53;;
21420;SDS011;10871;50.144;8.428;2022-08-01T13:31:34;2.50;;;2.30;;
21420;SDS011;10871;50.144;8.428;2022-08-01T13:34:01;3.17;;;2.47;;
21420;SDS011;10871;50.144;8.428;2022-08-01T13:36:27;5.72;;;2.72;;
21420;SDS011;10871;50.144;8.428;2022-08-01T13:38:54;3.10;;;2.90;;
21420;SDS011;10871;50.144;8.428;2022-08-01T13:41:40;3.20;;;3.00;;
21420;SDS011;10871;50.144;8.428;2022-08-01T13:44:06;5.47;;;3.40;;
21420;SDS011;10871;50.144;8.428;2022-08-01T13:46:35;3.83;;;3.47;;
21420;SDS011;10871;50.144;8.428;2022-08-01T13:49:02;5.65;;;3.33;;
21420;SDS011;10871;50.144;8.428;2022-08-01T13:51:42;5.13;;;3.90;;
21420;SDS011;10871;50.144;8.428;2022-08-01T13:54:08;5.65;;;3.50;;
21420;SDS011;10871;50.144;8.428;2022-08-01T13:56:35;4.65;;;3.90;;
21420;SDS011;10871;50.144;8.428;2022-08-01T13:59:01;4.30;;;3.85;;
21420;SDS011;10871;50.144;8.428;2022-08-01T14:01:28;6.45;;;3.88;;
21420;SDS011;10871;50.144;8.428;2022-08-01T14:03:59;4.38;;;3.83;;
21420;SDS011;10871;50.144;8.428;2022-08-01T14:06:26;3.90;;;3.53;;
21420;SDS011;10871;50.144;8.428;2022-08-01T14:08:52;4.00;;;3.70;;
21420;SDS011;10871;50.144;8.428;2022-08-01T14:11:19;3.90;;;3.60;;
21420;SDS011;10871;50.144;8.428;2022-08-01T14:13:46;3.92;;;3.53;;
21420;SDS011;10871;50.144;8.428;2022-08-01T14:16:13;3.92;;;3.22;;
21420;SDS011;10871;50.144;8.428;2022-08-01T14:18:40;3.67;;;3.35;;
21420;SDS011;10871;50.144;8.428;2022-08-01T14:21:09;5.18;;;3.35;;
21420;SDS011;10871;50.144;8.428;2022-08-01T14:23:36;3.88;;;3.53;;
21420;SDS011;10871;50.144;8.428;2022-08-01T14:26:02;3.70;;;3.40;;
21420;SDS011;10871;50.144;8.428;2022-08-01T14:28:37;5.60;;;3.17;;
21420;SDS011;10871;50.144;8.428;2022-08-01T14:31:04;4.40;;;3.53;;
21420;SDS011;10871;50.144;8.428;2022-08-01T14:33:34;3.88;;;3.38;;
21420;SDS011;10871;50.144;8.428;2022-08-01T14:36:00;3.63;;;3.33;;
21420;SDS011;10871;50.144;8.428;2022-08-01T14:38:47;3.58;;;3.28;;
21420;SDS011;10871;50.144;8.428;2022-08-01T14:41:14;3.58;;;3.28;;
21420;SDS011;10871;50.144;8.428;2022-08-01T14:43:40;3.80;;;3.30;;
21420;SDS011;10871;50.144;8.428;2022-08-01T14:46:06;3.88;;;3.58;;
21420;SDS011;10871;50.144;8.428;2022-08-01T14:48:35;3.60;;;3.30;;
21420;SDS011;10871;50.144;8.428;2022-08-01T14:51:02;3.97;;;3.58;;
21420;SDS011;10871;50.144;8.428;2022-08-01T14:53:29;8.48;;;3.85;;
21420;SDS011;10871;50.144;8.428;2022-08-01T14:55:56;4.15;;;3.72;;
21420;SDS011;10871;50.144;8.428;2022-08-01T14:58:22;4.88;;;3.70;;
21420;SDS011;10871;50.144;8.428;2022-08-01T15:00:48;3.63;;;3.33;;
21420;SDS011;10871;50.144;8.428;2022-08-01T15:03:17;3.85;;;3.55;;
21420;SDS011;10871;50.144;8.428;2022-08-01T15:05:43;4.00;;;3.70;;
21420;SDS011;10871;50.144;8.428;2022-08-01T15:08:10;5.70;;;3.70;;
21420;SDS011;10871;50.144;8.428;2022-08-01T15:10:36;4.18;;;3.33;;
21420;SDS011;10871;50.144;8.428;2022-08-01T15:13:02;5.32;;;3.58;;
21420;SDS011;10871;50.144;8.428;2022-08-01T15:15:29;3.83;;;3.40;;
21420;SDS011;10871;50.144;8.428;2022-08-01T15:17:55;4.65;;;3.65;;
21420;SDS011;10871;50.144;8.428;2022-08-01T15:20:22;4.30;;;3.67;;
21420;SDS011;10871;50.144;8.428;2022-08-01T15:22:48;3.83;;;3.47;;
21420;SDS011;10871;50.144;8.428;2022-08-01T15:25:15;7.05;;;3.67;;
21420;SDS011;10871;50.144;8.428;2022-08-01T15:27:41;3.65;;;3.35;;
21420;SDS011;10871;50.144;8.428;2022-08-01T15:30:08;3.10;;;2.80;;
21420;SDS011;10871;50.144;8.428;2022-08-01T15:32:35;5.22;;;3.05;;
21420;SDS011;10871;50.144;8.428;2022-08-01T15:35:01;4.13;;;3.00;;